»·PEaware :: N62GD KPSP-KSMO

N62GD :: KPSP-KSMO

FLIGHT INFORMATION

Flight Status: Arrived
Operator: Privately registered:
United States
More flights under this callsign
Pilot: Andrew S. (20703)
Aircraft: PILATUS PC-12 EAGLE
(PC12)
More flights by this aircraft type
Origin: KPSP Palm Springs Intl
United States
Destination: KSMO Santa Monica Mun
United States
More flights between these airports :: More routes between these airports
Route: +GARNE AHLEX T306 KSMO
File this flight plan on PilotEdge
Remarks:
Altitude:
(Current/Filed)
14,500ft
Speed:
(Current/Filed)
268kts
Departed: 15-Dec-18 03:14 PM
Arrived: 15-Dec-18 03:50 PM
Distance/Time
Traveled:
98nm/0:36
Distance/Time
To Go:
Arrived

Flight Plot

Page will automatically refresh every two minutes.

Flight plan parsing failed; only flown route is shown


Map Options




Map Legend


Flown Route
Filed Route
Departure Airport
Arrival Airport
Navaid (VOR, NDB)
Fix

Horizontal Profiles

Position Reports

Time Latitude Longitude Heading Altitude Ground
Speed
15-Dec-18 14:48 33.822573 -116.497642 55 481ft 0kts
15-Dec-18 14:49 33.822573 -116.497642 55 481ft 0kts
15-Dec-18 14:50 33.822573 -116.497642 55 481ft 0kts
15-Dec-18 14:51 33.822573 -116.497642 55 481ft 0kts
15-Dec-18 14:52 33.822573 -116.497642 55 481ft 0kts
15-Dec-18 14:53 33.822573 -116.497642 55 481ft 0kts
15-Dec-18 14:53 33.822573 -116.497642 55 481ft 0kts
15-Dec-18 14:54 33.822573 -116.497642 55 481ft 0kts
15-Dec-18 14:56 33.822573 -116.497642 55 481ft 0kts
15-Dec-18 14:57 33.822573 -116.497642 55 481ft 0kts
15-Dec-18 14:57 33.822573 -116.497642 55 481ft 0kts
15-Dec-18 14:59 33.822573 -116.497642 55 481ft 0kts
15-Dec-18 14:59 33.822573 -116.497642 55 481ft 0kts
15-Dec-18 15:00 33.822573 -116.497642 55 481ft 0kts
15-Dec-18 15:01 33.822573 -116.497642 55 481ft 0kts
15-Dec-18 15:02 33.822573 -116.497642 55 481ft 0kts
15-Dec-18 15:03 33.822573 -116.497642 55 481ft 0kts
15-Dec-18 15:04 33.822573 -116.497642 55 481ft 0kts
15-Dec-18 15:05 33.822573 -116.497642 55 481ft 0kts
15-Dec-18 15:06 33.822573 -116.497642 55 481ft 0kts
15-Dec-18 15:07 33.822573 -116.497642 55 481ft 0kts
15-Dec-18 15:08 33.822573 -116.497642 55 481ft 0kts
15-Dec-18 15:09 33.824712 -116.499199 300 481ft 9kts
15-Dec-18 15:10 33.824693 -116.499534 233 481ft 0kts
15-Dec-18 15:11 33.824693 -116.499534 233 481ft 0kts
15-Dec-18 15:12 33.824610 -116.499659 230 481ft 8kts
15-Dec-18 15:13 33.834901 -116.509624 321 821ft 123kts
15-Dec-18 15:14 33.862432 -116.539495 318 3339ft 143kts
15-Dec-18 15:15 33.889299 -116.572805 276 6221ft 144kts
15-Dec-18 15:16 33.890960 -116.616628 303 9086ft 146kts
15-Dec-18 15:17 33.895392 -116.658052 240 11852ft 142kts
15-Dec-18 15:18 33.883640 -116.702459 265 14381ft 155kts
15-Dec-18 15:19 33.885475 -116.772902 271 14446ft 246kts
15-Dec-18 15:20 33.889910 -116.859169 272 14426ft 265kts
15-Dec-18 15:21 33.893961 -116.948571 271 14416ft 269kts
15-Dec-18 15:22 33.897898 -117.038356 270 14412ft 268kts
15-Dec-18 15:23 33.901726 -117.127914 270 14452ft 269kts
15-Dec-18 15:24 33.905522 -117.219251 270 14452ft 276kts
15-Dec-18 15:25 33.909496 -117.311938 274 14446ft 278kts
15-Dec-18 15:26 33.949189 -117.392409 302 14503ft 283kts
15-Dec-18 15:27 33.993226 -117.470992 302 14507ft 283kts
15-Dec-18 15:28 34.037348 -117.549688 302 14510ft 283kts
15-Dec-18 15:29 34.081500 -117.628413 302 14512ft 283kts
15-Dec-18 15:30 34.102940 -117.711654 253 14521ft 273kts
15-Dec-18 15:31 34.090154 -117.802114 258 14521ft 274kts
15-Dec-18 15:32 34.079680 -117.894558 259 13848ft 292kts
15-Dec-18 15:33 34.069265 -117.987315 259 12336ft 272kts
15-Dec-18 15:34 34.059433 -118.073949 261 9529ft 245kts
15-Dec-18 15:35 34.050857 -118.149013 262 7327ft 208kts
15-Dec-18 15:36 34.043508 -118.213047 262 5844ft 180kts
15-Dec-18 15:37 34.037574 -118.264190 262 5505ft 130kts
15-Dec-18 15:38 34.032322 -118.308981 262 5511ft 137kts
15-Dec-18 15:39 34.026770 -118.354583 262 5512ft 137kts
15-Dec-18 15:40 34.021519 -118.401068 262 4588ft 156kts
15-Dec-18 15:41 34.010019 -118.457039 240 2386ft 190kts
15-Dec-18 15:42 33.998075 -118.511120 311 1221ft 176kts
15-Dec-18 15:43 34.036748 -118.523383 46 1214ft 150kts
15-Dec-18 15:44 34.060830 -118.489209 44 1219ft 129kts
15-Dec-18 15:45 34.073508 -118.454548 93 1222ft 104kts
15-Dec-18 15:46 34.056222 -118.430685 140 1219ft 106kts
15-Dec-18 15:47 34.032011 -118.431891 223 585ft 85kts
15-Dec-18 15:48 34.017743 -118.449145 226 173ft 59kts
15-Dec-18 15:49 34.012687 -118.453301 85 173ft 0kts

Navigation Log

Ident Type
Flight plan parsing failed, navigation log unavailable